Time;durP1;ratioP1;P1;durP2;ratioP2;P2;SDS_P1;SDS_P2;PMS_P1;PMS_P2;Temp;Humidity;BMP_temperature;BMP_pressure;BME280_temperature;BME280_humidity;BME280_pressure;Samples;Min_cycle;Max_cycle;Signal;HPM_P1;HPM_P2
2021/12/17 00:04:49;;;;;;;138.67;49.40;;;9.30;99.90;;;;;;5036399;28;20206;-61
2021/12/17 00:07:18;;;;;;;132.20;51.43;;;9.30;1.00;;;;;;5065538;28;21073;-61
2021/12/17 00:09:47;;;;;;;142.93;52.87;;;9.20;1.00;;;;;;5094192;28;20248;-62
2021/12/17 00:12:17;;;;;;;152.23;52.83;;;9.20;99.90;;;;;;5091355;28;20232;-61
2021/12/17 00:14:48;;;;;;;154.20;52.93;;;9.10;83.30;;;;;;5080146;28;20200;-61
2021/12/17 00:17:23;;;;;;;154.37;53.37;;;9.10;99.90;;;;;;5079176;28;20668;-61
2021/12/17 00:50:54;;;;;;;233.07;80.53;;;9.10;99.90;;;;;;5080439;28;20205;-60
2021/12/17 00:53:18;;;;;;;220.00;78.93;;;9.10;99.90;;;;;;5077151;28;20206;-60
2021/12/17 00:55:46;;;;;;;226.47;80.10;;;9.10;99.90;;;;;;5099725;28;20937;-60
2021/12/17 00:58:13;;;;;;;244.93;85.83;;;9.10;99.90;;;;;;5079065;28;20221;-60
2021/12/17 01:00:41;;;;;;;231.30;85.83;;;9.10;56.60;;;;;;5079876;28;20232;-61
2021/12/17 01:03:08;;;;;;;232.70;70.53;;;9.10;1.00;;;;;;5097072;28;20282;-60
2021/12/17 01:05:37;;;;;;;206.00;64.90;;;9.10;99.90;;;;;;5098916;28;20526;-60
2021/12/17 01:08:06;;;;;;;195.30;61.53;;;9.10;99.90;;;;;;5061355;28;20190;-60
2021/12/17 01:10:54;;;;;;;201.23;58.07;;;9.10;99.90;;;;;;5076921;28;21456;-61
2021/12/17 01:13:41;;;;;;;216.60;59.63;;;9.10;99.90;;;;;;5079922;28;20190;-61
2021/12/17 01:16:27;;;;;;;215.90;62.70;;;9.20;99.90;;;;;;5082667;28;21209;-60
2021/12/17 01:24:46;;;;;;;197.97;60.13;;;9.20;1.00;;;;;;5094487;28;20198;-60
2021/12/17 01:36:38;;;;;;;170.20;57.20;;;9.20;99.90;;;;;;5056353;28;20210;-60
2021/12/17 01:42:04;;;;;;;154.60;55.33;;;9.20;99.90;;;;;;5100527;28;20238;-60
2021/12/17 01:44:37;;;;;;;155.83;55.23;;;9.20;95.80;;;;;;5081273;28;20194;-60
2021/12/17 01:47:10;;;;;;;148.97;55.20;;;9.20;99.90;;;;;;5078750;28;20253;-60
2021/12/17 02:00:40;;;;;;;156.37;57.10;;;9.20;1.00;;;;;;5058646;28;21857;-61
2021/12/17 02:03:09;;;;;;;148.00;55.37;;;9.20;1.00;;;;;;5074720;28;20221;-60
2021/12/17 02:05:38;;;;;;;157.03;55.87;;;9.20;1.00;;;;;;5080337;28;20198;-60
2021/12/17 02:08:05;;;;;;;160.97;58.47;;;9.30;1.00;;;;;;5077514;28;20538;-61
2021/12/17 02:11:31;;;;;;;162.83;58.70;;;9.20;1.00;;;;;;5076878;28;20195;-60
2021/12/17 02:22:28;;;;;;;150.07;55.33;;;9.20;1.00;;;;;;5082403;28;20222;-61
2021/12/17 02:30:37;;;;;;;141.90;54.40;;;9.30;99.90;;;;;;5084254;28;20309;-60
2021/12/17 02:33:02;;;;;;;143.20;56.23;;;9.30;99.90;;;;;;5075178;28;20812;-60
2021/12/17 02:35:42;;;;;;;144.93;56.83;;;9.30;45.60;;;;;;5080948;28;20661;-60
2021/12/17 02:38:11;;;;;;;142.37;53.97;;;9.20;1.00;;;;;;5079903;28;20190;-60
2021/12/17 02:46:50;;;;;;;136.70;51.80;;;9.20;23.40;;;;;;5099630;27;20190;-60
2021/12/17 02:49:18;;;;;;;131.60;51.80;;;9.30;24.10;;;;;;5079798;28;20187;-61
2021/12/17 02:51:48;;;;;;;129.03;53.83;;;9.20;99.90;;;;;;5088320;28;20206;-60
2021/12/17 02:54:15;;;;;;;134.47;51.77;;;9.20;99.90;;;;;;5075716;28;20245;-60
2021/12/17 02:56:42;;;;;;;136.17;53.70;;;9.30;99.90;;;;;;5083983;28;20794;-60
2021/12/17 02:59:13;;;;;;;133.37;52.13;;;9.20;99.90;;;;;;5083116;28;20194;-61
2021/12/17 03:01:44;;;;;;;138.27;52.57;;;9.20;99.90;;;;;;5077337;28;20226;-61
2021/12/17 03:04:13;;;;;;;143.03;54.63;;;9.20;1.00;;;;;;5077167;28;20218;-60
2021/12/17 03:06:41;;;;;;;120.63;51.30;;;9.20;99.90;;;;;;5097551;28;20202;-60
2021/12/17 03:09:08;;;;;;;129.53;52.03;;;9.20;1.00;;;;;;5080897;28;20190;-60
2021/12/17 03:11:35;;;;;;;122.63;50.93;;;9.10;1.00;;;;;;5100290;28;20244;-60
2021/12/17 03:14:02;;;;;;;124.00;51.23;;;9.20;1.00;;;;;;5071367;28;20198;-60
2021/12/17 03:16:39;;;;;;;121.67;54.90;;;9.20;1.00;;;;;;5080415;28;20202;-60
2021/12/17 03:19:11;;;;;;;115.57;50.47;;;9.20;1.00;;;;;;5094496;28;20607;-60
2021/12/17 03:24:24;;;;;;;134.87;61.30;;;9.20;1.00;;;;;;5081978;28;20186;-60
2021/12/17 03:26:51;;;;;;;130.53;57.33;;;9.20;1.00;;;;;;5081069;28;20193;-60
2021/12/17 03:29:20;;;;;;;130.17;56.43;;;9.20;1.00;;;;;;5098085;28;20272;-59
2021/12/17 03:31:52;;;;;;;114.63;49.67;;;9.20;1.00;;;;;;5081377;28;20385;-60
2021/12/17 03:34:21;;;;;;;115.87;48.30;;;9.10;99.90;;;;;;5085011;28;20225;-61
2021/12/17 03:36:54;;;;;;;114.40;48.67;;;9.10;99.90;;;;;;5064731;28;20201;-60
2021/12/17 03:39:23;;;;;;;112.70;46.73;;;9.20;99.90;;;;;;5081717;28;20229;-60
2021/12/17 03:41:52;;;;;;;111.77;46.27;;;9.20;99.90;;;;;;5084194;28;20234;-60
2021/12/17 03:44:34;;;;;;;102.27;44.53;;;9.10;1.00;;;;;;5081164;28;20197;-60
2021/12/17 03:47:02;;;;;;;90.97;40.73;;;9.10;1.00;;;;;;5082773;28;20263;-60
2021/12/17 03:49:42;;;;;;;98.33;41.07;;;9.10;1.00;;;;;;5076287;28;20194;-60
2021/12/17 03:52:10;;;;;;;81.27;35.83;;;9.20;1.00;;;;;;5065170;28;20190;-61
2021/12/17 03:54:40;;;;;;;74.07;32.03;;;9.10;1.00;;;;;;5079368;28;21378;-60
2021/12/17 03:57:12;;;;;;;70.10;29.97;;;9.10;1.00;;;;;;5079099;28;20198;-61
2021/12/17 03:59:48;;;;;;;55.27;24.27;;;9.10;99.90;;;;;;5098809;28;20251;-61
2021/12/17 04:02:19;;;;;;;45.80;21.53;;;9.00;99.90;;;;;;5063586;28;20221;-60
2021/12/17 04:04:46;;;;;;;48.33;21.57;;;9.10;86.90;;;;;;5063303;28;20659;-61
2021/12/17 04:07:31;;;;;;;47.50;24.30;;;9.10;25.00;;;;;;5080963;28;20205;-61
2021/12/17 04:10:07;;;;;;;48.07;23.43;;;9.10;1.00;;;;;;5080806;28;20192;-60
2021/12/17 04:15:18;;;;;;;51.70;25.90;;;9.00;1.00;;;;;;5079493;28;20641;-60
2021/12/17 04:17:53;;;;;;;55.17;25.40;;;9.00;1.00;;;;;;5062363;28;20216;-60
2021/12/17 04:20:20;;;;;;;65.77;34.70;;;9.00;1.00;;;;;;5076168;28;20213;-60
2021/12/17 04:22:47;;;;;;;60.13;30.13;;;9.00;1.00;;;;;;5093134;28;20309;-60
2021/12/17 04:25:14;;;;;;;53.20;30.17;;;9.00;1.00;;;;;;5094185;28;20202;-61
2021/12/17 04:27:41;;;;;;;50.13;26.63;;;9.10;1.00;;;;;;5098148;28;20182;-60
2021/12/17 04:30:09;;;;;;;58.30;29.20;;;9.10;1.00;;;;;;5092160;28;20229;-60
2021/12/17 04:32:37;;;;;;;64.10;30.77;;;9.10;1.00;;;;;;5097776;28;22292;-60
2021/12/17 04:35:05;;;;;;;66.50;31.07;;;9.00;1.00;;;;;;5077400;28;20293;-61
2021/12/17 04:37:52;;;;;;;69.67;33.97;;;9.00;91.90;;;;;;5080084;28;20285;-60
2021/12/17 04:40:22;;;;;;;86.90;40.00;;;9.00;16.50;;;;;;5079045;28;20205;-60
2021/12/17 04:43:11;;;;;;;105.37;44.90;;;9.00;99.90;;;;;;5097010;28;20198;-61
2021/12/17 04:46:04;;;;;;;92.77;40.60;;;9.10;99.90;;;;;;5078023;28;20193;-62
2021/12/17 04:59:44;;;;;;;74.37;35.13;;;9.00;99.90;;;;;;5078901;28;20198;-60
2021/12/17 05:02:11;;;;;;;78.13;35.97;;;8.90;99.90;;;;;;5082430;28;20230;-60
2021/12/17 05:04:49;;;;;;;74.37;34.83;;;8.90;99.90;;;;;;5079628;28;20200;-60
2021/12/17 05:07:16;;;;;;;72.43;33.97;;;9.00;1.00;;;;;;5098309;28;20198;-60
2021/12/17 05:10:07;;;;;;;73.30;35.70;;;9.00;16.20;;;;;;5078590;28;20247;-61
2021/12/17 05:18:18;;;;;;;69.83;35.27;;;9.00;99.90;;;;;;5096407;28;20275;-60
2021/12/17 05:20:58;;;;;;;74.10;37.27;;;8.90;99.90;;;;;;5091706;28;20602;-61
2021/12/17 05:23:31;;;;;;;79.97;36.70;;;9.00;99.90;;;;;;5078121;28;20731;-61
2021/12/17 05:26:03;;;;;;;69.80;34.83;;;8.90;99.90;;;;;;5077405;28;20202;-61
2021/12/17 05:28:35;;;;;;;64.93;33.47;;;8.90;99.90;;;;;;5100706;28;20641;-61
2021/12/17 05:31:05;;;;;;;67.23;35.03;;;8.90;1.00;;;;;;5083730;28;20597;-60
2021/12/17 05:33:37;;;;;;;66.93;33.50;;;8.90;1.00;;;;;;5074285;28;20263;-62
2021/12/17 05:36:04;;;;;;;70.93;35.80;;;8.90;1.00;;;;;;5084537;28;20619;-61
2021/12/17 05:38:32;;;;;;;65.77;35.27;;;8.90;1.00;;;;;;5079395;28;20206;-61
2021/12/17 05:40:59;;;;;;;66.57;35.13;;;8.90;1.00;;;;;;5083628;28;20206;-60
2021/12/17 05:43:39;;;;;;;70.00;37.47;;;9.00;1.00;;;;;;5086455;28;20225;-61
2021/12/17 05:48:35;;;;;;;73.27;36.63;;;9.00;1.00;;;;;;5100003;28;20201;-61
2021/12/17 05:51:05;;;;;;;79.03;37.17;;;8.90;1.00;;;;;;5101917;28;20813;-61
2021/12/17 05:53:32;;;;;;;85.17;40.43;;;8.90;1.00;;;;;;5103375;28;20222;-60
2021/12/17 05:56:02;;;;;;;90.73;42.47;;;8.90;1.00;;;;;;5082706;28;20206;-60
2021/12/17 05:58:40;;;;;;;91.30;45.87;;;8.90;1.00;;;;;;5102604;28;20558;-60
2021/12/17 06:01:07;;;;;;;71.93;36.37;;;8.90;1.00;;;;;;5083547;28;20210;-60
2021/12/17 06:04:01;;;;;;;66.23;33.50;;;8.90;1.00;;;;;;5072970;28;20371;-60
2021/12/17 06:06:36;;;;;;;64.87;35.30;;;8.80;1.00;;;;;;5069902;28;20294;-61
2021/12/17 06:09:09;;;;;;;64.03;34.13;;;8.80;1.00;;;;;;5076681;28;20182;-61
2021/12/17 06:11:36;;;;;;;65.17;34.93;;;8.80;1.00;;;;;;5095479;28;20206;-61
2021/12/17 06:14:05;;;;;;;69.83;35.83;;;8.70;1.00;;;;;;5097301;28;20198;-60
2021/12/17 06:16:36;;;;;;;67.43;34.67;;;8.80;1.00;;;;;;5091048;28;20684;-60
2021/12/17 06:19:07;;;;;;;64.90;33.87;;;8.80;74.80;;;;;;5090339;28;20215;-60
2021/12/17 06:21:36;;;;;;;62.47;33.07;;;8.80;99.90;;;;;;5055390;28;20228;-60
2021/12/17 06:24:03;;;;;;;61.43;31.80;;;8.80;99.90;;;;;;5054088;28;20545;-61
2021/12/17 06:26:33;;;;;;;57.57;32.27;;;8.80;99.90;;;;;;5069877;28;20195;-61
2021/12/17 06:29:06;;;;;;;59.87;31.17;;;8.80;99.90;;;;;;5070953;28;20223;-61
2021/12/17 06:31:33;;;;;;;51.87;29.33;;;8.80;99.90;;;;;;5090687;28;20230;-61
2021/12/17 06:34:00;;;;;;;54.07;29.73;;;8.80;99.90;;;;;;5071156;28;20279;-60
2021/12/17 06:36:29;;;;;;;51.00;27.50;;;8.80;99.90;;;;;;5051001;28;20275;-60
2021/12/17 06:38:56;;;;;;;53.23;27.87;;;8.80;99.90;;;;;;5084213;28;20529;-60
2021/12/17 06:41:25;;;;;;;55.67;29.57;;;8.90;92.40;;;;;;5068510;28;20206;-60
2021/12/17 06:43:55;;;;;;;56.80;30.43;;;8.80;41.30;;;;;;5067362;28;20698;-59
2021/12/17 06:46:55;;;;;;;56.63;29.77;;;8.90;24.00;;;;;;5084438;28;20186;-60
2021/12/17 06:49:26;;;;;;;61.07;31.03;;;8.90;1.00;;;;;;5066949;28;20537;-61
2021/12/17 07:10:28;;;;;;;53.13;27.10;;;8.80;1.00;;;;;;5037100;28;20200;-60
2021/12/17 07:34:08;;;;;;;39.10;20.23;;;8.70;1.00;;;;;;5093326;28;20202;-60
2021/12/17 07:36:56;;;;;;;43.53;19.30;;;8.70;1.00;;;;;;5075711;28;20313;-61
2021/12/17 07:39:27;;;;;;;48.50;21.13;;;8.70;1.00;;;;;;5073243;28;20753;-61
2021/12/17 07:42:05;;;;;;;40.20;19.90;;;8.60;1.00;;;;;;5079463;28;20281;-60
2021/12/17 07:44:35;;;;;;;37.87;18.90;;;8.70;1.00;;;;;;5073319;28;20252;-60
2021/12/17 07:47:18;;;;;;;39.50;19.23;;;8.60;1.00;;;;;;5077882;28;20209;-61
2021/12/17 07:50:04;;;;;;;42.57;19.73;;;8.60;1.00;;;;;;5075498;28;20202;-61
2021/12/17 07:52:32;;;;;;;40.73;19.67;;;8.60;1.00;;;;;;5091210;28;20198;-61
2021/12/17 07:54:59;;;;;;;40.40;18.93;;;8.60;1.00;;;;;;5095171;28;20244;-60
2021/12/17 07:57:26;;;;;;;37.23;19.43;;;8.60;99.90;;;;;;5074380;28;20198;-61
2021/12/17 07:59:53;;;;;;;35.73;19.27;;;8.60;99.90;;;;;;5076091;28;20240;-60
2021/12/17 08:02:20;;;;;;;36.97;18.93;;;8.60;99.90;;;;;;5073197;28;20222;-60
2021/12/17 08:04:57;;;;;;;38.57;19.67;;;8.60;99.90;;;;;;5070959;28;20202;-62
2021/12/17 08:07:24;;;;;;;42.47;22.23;;;8.80;55.50;;;;;;5056500;28;20550;-62
2021/12/17 08:09:52;;;;;;;38.53;19.80;;;9.00;1.00;;;;;;5073296;28;20206;-62
2021/12/17 08:12:19;;;;;;;40.10;20.07;;;9.30;99.90;;;;;;5091715;28;20201;-62
2021/12/17 08:14:55;;;;;;;32.73;18.53;;;9.30;1.00;;;;;;5075582;28;20217;-62
2021/12/17 08:25:48;;;;;;;22.47;13.20;;;9.30;1.00;;;;;;5083251;28;20198;-62
2021/12/17 08:28:17;;;;;;;23.97;14.50;;;9.30;1.00;;;;;;5099038;28;20194;-62
2021/12/17 08:30:44;;;;;;;20.13;12.50;;;9.20;1.00;;;;;;5076806;28;20240;-62
2021/12/17 08:33:19;;;;;;;21.33;13.47;;;9.40;4.70;;;;;;5073506;28;20222;-63
2021/12/17 08:35:49;;;;;;;20.10;13.17;;;9.40;99.90;;;;;;5055542;28;20730;-62
2021/12/17 08:38:25;;;;;;;17.37;11.93;;;9.40;99.90;;;;;;5077100;28;20664;-62
2021/12/17 08:40:54;;;;;;;19.23;11.47;;;9.40;99.90;;;;;;5073387;28;20297;-62
2021/12/17 08:43:22;;;;;;;16.67;11.03;;;9.50;99.90;;;;;;5077868;28;20208;-62
2021/12/17 08:45:53;;;;;;;15.10;10.63;;;9.60;99.90;;;;;;5073760;28;20194;-62
2021/12/17 08:48:29;;;;;;;13.83;10.13;;;9.60;6.60;;;;;;5075660;28;20351;-64
2021/12/17 08:51:29;;;;;;;15.23;11.10;;;9.50;1.00;;;;;;5050152;28;20202;-64
2021/12/17 08:53:57;;;;;;;14.93;10.50;;;9.60;1.00;;;;;;5076586;28;20197;-64
2021/12/17 08:56:32;;;;;;;12.37;9.37;;;9.90;1.00;;;;;;5076858;28;20267;-64
2021/12/17 08:59:05;;;;;;;12.90;8.43;;;9.90;1.00;;;;;;5061908;28;20853;-64
2021/12/17 09:01:44;;;;;;;11.47;8.90;;;10.10;1.00;;;;;;5091831;28;20197;-64
2021/12/17 09:04:13;;;;;;;12.20;9.67;;;10.10;99.90;;;;;;5081791;28;20206;-63
2021/12/17 09:06:45;;;;;;;12.07;8.17;;;10.10;99.90;;;;;;5096920;27;20190;-63
2021/12/17 09:09:18;;;;;;;9.60;7.77;;;10.20;15.10;;;;;;5083441;28;20194;-63
2021/12/17 09:11:45;;;;;;;10.53;7.90;;;10.40;39.00;;;;;;5082273;28;20182;-64
2021/12/17 09:14:35;;;;;;;10.60;7.20;;;10.60;1.00;;;;;;5081767;28;20210;-64
2021/12/17 09:17:24;;;;;;;9.63;7.60;;;10.80;1.00;;;;;;5081528;28;20202;-64
2021/12/17 09:19:54;;;;;;;8.70;7.20;;;11.00;99.90;;;;;;5065418;28;20226;-64
2021/12/17 09:22:23;;;;;;;8.50;6.93;;;11.20;99.90;;;;;;5077735;28;20205;-64
2021/12/17 09:24:59;;;;;;;9.90;7.67;;;11.30;1.00;;;;;;5098935;28;20190;-64
2021/12/17 09:27:32;;;;;;;9.87;8.03;;;11.00;99.90;;;;;;5067009;28;20197;-64
2021/12/17 09:30:21;;;;;;;9.43;7.20;;;10.90;99.90;;;;;;5080947;28;20596;-64
2021/12/17 09:32:48;;;;;;;9.37;7.77;;;11.00;99.90;;;;;;5083663;28;20696;-64
2021/12/17 09:35:16;;;;;;;10.23;7.60;;;10.90;99.90;;;;;;5082122;28;20197;-64
2021/12/17 09:37:43;;;;;;;9.73;8.33;;;10.60;99.90;;;;;;5074527;28;20281;-64
2021/12/17 09:40:12;;;;;;;8.47;7.50;;;10.40;99.90;;;;;;5083616;28;20593;-63
2021/12/17 09:42:41;;;;;;;11.00;7.60;;;10.30;1.00;;;;;;5078204;28;20203;-64
2021/12/17 09:45:09;;;;;;;7.80;6.23;;;10.50;1.00;;;;;;5080319;28;20548;-64
2021/12/17 09:47:36;;;;;;;9.90;7.40;;;10.80;1.00;;;;;;5081544;28;20247;-62
2021/12/17 09:50:03;;;;;;;7.53;5.83;;;11.10;99.90;;;;;;5081990;28;20198;-63
2021/12/17 09:52:30;;;;;;;6.17;5.53;;;11.50;99.90;;;;;;5086314;28;20290;-63
2021/12/17 09:54:58;;;;;;;6.13;5.10;;;12.00;1.00;;;;;;5072029;28;20213;-63
2021/12/17 09:57:30;;;;;;;6.23;4.83;;;12.10;1.00;;;;;;5086328;28;20252;-65
2021/12/17 09:59:57;;;;;;;5.77;4.70;;;12.10;1.00;;;;;;5096415;28;20222;-64
2021/12/17 10:02:24;;;;;;;4.87;4.33;;;11.80;1.00;;;;;;5076497;28;20198;-63
2021/12/17 10:04:54;;;;;;;5.67;4.63;;;11.80;1.00;;;;;;5080852;28;20260;-63
2021/12/17 10:07:26;;;;;;;5.43;4.63;;;11.40;1.00;;;;;;5098325;28;20213;-63
2021/12/17 10:09:59;;;;;;;4.87;4.27;;;11.20;1.00;;;;;;5082244;28;20186;-63
2021/12/17 10:12:30;;;;;;;5.47;4.03;;;11.30;99.90;;;;;;5081971;28;20256;-65
2021/12/17 10:15:17;;;;;;;5.33;4.20;;;11.40;1.00;;;;;;5083008;28;20299;-64
2021/12/17 10:18:01;;;;;;;5.83;4.53;;;11.30;99.90;;;;;;5080075;28;20194;-64
2021/12/17 10:20:32;;;;;;;5.50;4.37;;;10.60;99.90;;;;;;5082619;28;20221;-65
2021/12/17 10:23:08;;;;;;;5.30;4.10;;;10.80;1.00;;;;;;5082557;28;20214;-64
2021/12/17 10:25:40;;;;;;;6.07;4.97;;;10.70;1.00;;;;;;5080465;28;20274;-64
2021/12/17 10:28:07;;;;;;;5.70;4.57;;;10.50;1.00;;;;;;5077184;28;20241;-64
2021/12/17 10:30:37;;;;;;;7.23;4.87;;;10.50;1.00;;;;;;5082930;28;20341;-64
2021/12/17 10:33:07;;;;;;;6.10;4.97;;;10.60;1.00;;;;;;5083133;28;20244;-64
2021/12/17 10:35:39;;;;;;;4.87;4.10;;;10.80;1.00;;;;;;5079525;28;20205;-63
2021/12/17 10:38:10;;;;;;;5.73;3.50;;;11.10;1.00;;;;;;5098864;28;20226;-65
2021/12/17 10:40:45;;;;;;;6.40;4.67;;;11.40;99.90;;;;;;5095828;28;20209;-63
2021/12/17 10:43:31;;;;;;;4.73;3.50;;;11.60;1.00;;;;;;5082121;28;20231;-64
2021/12/17 10:46:05;;;;;;;7.90;4.60;;;11.60;1.00;;;;;;5080232;28;20715;-65
2021/12/17 10:51:28;;;;;;;5.33;4.23;;;10.60;99.90;;;;;;5082604;28;20208;-65
2021/12/17 10:54:05;;;;;;;6.97;4.57;;;10.50;1.00;;;;;;5082700;28;20342;-65
2021/12/17 10:56:37;;;;;;;6.93;5.77;;;10.60;99.90;;;;;;5085387;28;20719;-65
2021/12/17 10:59:06;;;;;;;6.17;4.57;;;10.80;99.90;;;;;;5083313;28;20194;-65
2021/12/17 11:01:35;;;;;;;5.97;5.00;;;10.90;1.00;;;;;;5085764;28;20209;-64
2021/12/17 11:04:26;;;;;;;7.57;5.23;;;10.90;99.90;;;;;;5083924;28;20218;-63
2021/12/17 11:07:10;;;;;;;6.33;4.40;;;10.70;1.00;;;;;;5085181;28;20199;-64
2021/12/17 11:09:55;;;;;;;6.70;4.53;;;10.70;99.90;;;;;;5082772;28;20243;-63
2021/12/17 11:12:38;;;;;;;9.37;6.13;;;10.60;99.90;;;;;;5083878;28;20202;-64
2021/12/17 11:15:12;;;;;;;7.67;6.10;;;10.50;99.90;;;;;;5080144;28;20190;-64
2021/12/17 11:17:42;;;;;;;5.67;4.10;;;10.60;99.90;;;;;;5080607;28;20189;-64
2021/12/17 11:20:12;;;;;;;7.67;5.87;;;10.80;1.00;;;;;;5092311;28;20218;-64
2021/12/17 11:22:41;;;;;;;8.03;5.97;;;10.50;18.70;;;;;;5074975;28;20317;-64
2021/12/17 11:25:09;;;;;;;10.43;5.33;;;10.30;99.90;;;;;;5070606;28;20244;-65
2021/12/17 11:27:36;;;;;;;7.23;4.67;;;10.30;1.00;;;;;;5075831;28;20740;-63
2021/12/17 11:30:13;;;;;;;7.57;5.10;;;10.50;1.00;;;;;;5073115;28;20759;-64
2021/12/17 11:32:43;;;;;;;7.80;4.57;;;10.60;99.90;;;;;;5094625;28;20661;-64
2021/12/17 11:35:12;;;;;;;6.37;3.80;;;10.90;1.00;;;;;;5076865;28;20197;-63
2021/12/17 11:37:42;;;;;;;7.67;4.63;;;11.30;99.90;;;;;;5078796;28;20248;-64
2021/12/17 11:40:47;;;;;;;11.87;4.07;;;11.30;1.00;;;;;;5079512;28;20226;-64
2021/12/17 11:43:38;;;;;;;4.27;3.80;;;11.30;1.00;;;;;;5026771;28;20214;-63
2021/12/17 11:46:10;;;;;;;4.47;3.10;;;11.20;1.00;;;;;;5068068;28;20190;-64
2021/12/17 11:48:38;;;;;;;9.63;3.83;;;10.90;99.90;;;;;;5077311;28;20293;-63
2021/12/17 11:51:17;;;;;;;5.10;3.50;;;10.80;1.00;;;;;;5078804;28;20190;-64
2021/12/17 11:54:00;;;;;;;9.37;3.80;;;11.10;1.00;;;;;;5080986;28;20201;-63
2021/12/17 11:56:30;;;;;;;7.47;3.37;;;11.30;1.00;;;;;;5082940;28;20214;-63
2021/12/17 11:58:57;;;;;;;6.23;3.50;;;11.60;1.00;;;;;;5084769;28;20221;-63
2021/12/17 12:01:53;;;;;;;7.57;4.37;;;11.50;99.90;;;;;;5084552;28;20190;-65
2021/12/17 12:04:32;;;;;;;6.73;4.23;;;11.40;99.90;;;;;;5083042;28;20242;-64
2021/12/17 12:07:12;;;;;;;4.33;3.73;;;11.10;99.90;;;;;;5084213;28;20199;-63
2021/12/17 12:09:57;;;;;;;5.80;4.50;;;11.00;99.90;;;;;;5082942;28;20217;-64
2021/12/17 12:12:27;;;;;;;5.37;4.40;;;11.00;99.90;;;;;;5086497;28;21110;-64
2021/12/17 12:14:55;;;;;;;5.90;4.43;;;10.90;99.90;;;;;;5083262;28;20202;-63
2021/12/17 12:18:02;;;;;;;3.77;3.30;;;10.80;99.90;;;;;;5084263;28;20225;-64
2021/12/17 12:20:45;;;;;;;6.70;4.23;;;11.10;99.90;;;;;;5081299;28;20214;-65
2021/12/17 12:23:30;;;;;;;6.20;5.20;;;11.00;1.00;;;;;;5083585;28;20197;-64
2021/12/17 12:26:03;;;;;;;7.27;5.30;;;11.00;1.00;;;;;;5083189;28;20186;-64
2021/12/17 12:28:54;;;;;;;7.80;5.17;;;10.80;99.90;;;;;;5083609;28;20230;-63
2021/12/17 12:31:31;;;;;;;8.23;5.87;;;10.70;99.90;;;;;;5083569;28;20608;-63
2021/12/17 12:34:05;;;;;;;5.93;5.03;;;10.70;1.00;;;;;;5083778;28;20469;-64
2021/12/17 12:36:50;;;;;;;7.10;5.97;;;10.60;1.00;;;;;;5099776;28;20186;-65
2021/12/17 12:39:23;;;;;;;6.13;4.60;;;10.70;1.00;;;;;;5081595;28;20194;-63
2021/12/17 12:42:04;;;;;;;5.70;4.27;;;10.80;99.90;;;;;;5082614;28;20194;-63
2021/12/17 12:44:44;;;;;;;4.40;3.43;;;11.00;19.80;;;;;;5065797;28;20637;-63
2021/12/17 12:47:20;;;;;;;5.83;4.60;;;11.00;99.90;;;;;;5088171;28;20709;-64
2021/12/17 12:49:56;;;;;;;4.80;4.13;;;10.80;1.00;;;;;;5103971;28;20194;-64
2021/12/17 12:52:34;;;;;;;6.87;5.40;;;10.50;1.00;;;;;;5088608;28;20189;-63
2021/12/17 12:55:15;;;;;;;6.60;5.10;;;10.20;1.00;;;;;;5087473;28;20828;-63
2021/12/17 12:57:46;;;;;;;6.50;5.23;;;10.20;1.00;;;;;;5086597;28;20209;-64
2021/12/17 13:00:24;;;;;;;6.57;5.23;;;10.20;99.90;;;;;;5084095;28;20252;-62
2021/12/17 13:02:55;;;;;;;7.03;5.80;;;10.20;1.00;;;;;;5088039;28;20273;-64
2021/12/17 13:05:24;;;;;;;7.00;5.83;;;10.10;1.00;;;;;;5087779;28;20317;-64
2021/12/17 13:07:57;;;;;;;8.30;5.93;;;10.10;99.90;;;;;;5083499;28;20186;-64
2021/12/17 13:10:30;;;;;;;6.80;5.47;;;10.10;20.00;;;;;;5087382;28;20222;-64
2021/12/17 13:13:06;;;;;;;4.67;4.17;;;10.00;99.90;;;;;;5086702;28;20186;-63
2021/12/17 13:24:18;;;;;;;6.80;5.80;;;10.30;99.90;;;;;;5025377;28;20312;-63
2021/12/17 13:26:57;;;;;;;6.87;5.57;;;10.10;99.90;;;;;;5076303;28;20281;-65
2021/12/17 13:29:37;;;;;;;9.27;6.30;;;10.30;99.90;;;;;;5087590;28;20278;-64
2021/12/17 13:32:16;;;;;;;6.03;5.40;;;10.20;1.00;;;;;;5085600;28;20214;-63
2021/12/17 13:34:56;;;;;;;6.77;4.87;;;10.10;99.90;;;;;;5086675;28;20198;-62
2021/12/17 13:37:24;;;;;;;8.57;4.30;;;10.50;99.90;;;;;;5085489;28;20251;-64
2021/12/17 13:39:56;;;;;;;6.67;4.50;;;10.70;1.00;;;;;;5088364;28;20569;-64
2021/12/17 13:42:32;;;;;;;10.10;5.63;;;10.90;1.00;;;;;;5088740;28;20251;-64
2021/12/17 13:45:12;;;;;;;9.63;6.73;;;11.00;1.00;;;;;;5086971;28;20646;-64
2021/12/17 13:47:47;;;;;;;7.43;6.57;;;10.80;94.70;;;;;;5086170;28;20267;-63
2021/12/17 13:50:30;;;;;;;13.50;5.17;;;10.60;99.90;;;;;;5088069;28;20186;-65
2021/12/17 13:53:05;;;;;;;9.07;7.17;;;10.60;99.90;;;;;;5087897;28;20210;-63
2021/12/17 13:55:51;;;;;;;10.77;7.13;;;10.50;99.90;;;;;;5088183;28;20320;-64
2021/12/17 13:58:24;;;;;;;7.90;4.33;;;10.50;1.00;;;;;;5086257;28;20291;-64
2021/12/17 14:00:55;;;;;;;8.00;5.90;;;10.70;1.00;;;;;;5087274;28;20239;-64
2021/12/17 14:03:32;;;;;;;7.80;5.77;;;10.90;99.90;;;;;;5088183;28;20646;-64
2021/12/17 14:06:21;;;;;;;11.90;8.07;;;10.60;82.50;;;;;;5086999;28;20199;-64
2021/12/17 14:08:48;;;;;;;9.57;7.00;;;10.70;99.90;;;;;;5103753;28;20194;-63
2021/12/17 14:11:25;;;;;;;10.80;8.20;;;10.50;1.00;;;;;;5087622;28;20281;-64
2021/12/17 14:14:27;;;;;;;11.77;8.50;;;10.30;1.00;;;;;;5072220;28;20271;-64
2021/12/17 14:17:03;;;;;;;7.80;6.77;;;10.40;1.00;;;;;;5077884;28;21560;-64
2021/12/17 14:19:45;;;;;;;8.43;6.43;;;10.40;99.90;;;;;;5085596;28;20213;-64
2021/12/17 14:22:32;;;;;;;9.60;7.33;;;10.10;1.00;;;;;;5085372;28;20900;-63
2021/12/17 14:25:00;;;;;;;10.50;7.20;;;10.20;99.90;;;;;;5085267;28;20317;-64
2021/12/17 14:27:47;;;;;;;9.17;7.00;;;10.30;99.90;;;;;;5086174;28;20248;-65
2021/12/17 14:30:14;;;;;;;11.17;7.57;;;10.30;1.00;;;;;;5085100;28;20229;-64
2021/12/17 14:32:43;;;;;;;9.20;7.50;;;10.30;29.50;;;;;;5086680;28;20218;-64
2021/12/17 14:35:11;;;;;;;10.10;8.00;;;10.20;86.60;;;;;;5074869;28;20232;-64
2021/12/17 14:37:56;;;;;;;9.93;6.57;;;10.00;40.10;;;;;;5087117;28;20199;-64
2021/12/17 14:40:32;;;;;;;8.23;6.57;;;10.00;99.90;;;;;;5103303;28;20218;-65
2021/12/17 14:42:59;;;;;;;7.47;5.93;;;10.00;99.90;;;;;;5086600;28;20214;-64
2021/12/17 14:45:35;;;;;;;9.90;5.93;;;10.00;1.00;;;;;;5086984;28;20230;-63
2021/12/17 14:48:22;;;;;;;7.97;5.90;;;10.10;1.00;;;;;;5087596;28;20221;-64
2021/12/17 15:04:50;;;;;;;6.93;6.23;;;9.60;99.90;;;;;;5066385;28;20235;-64
2021/12/17 15:07:19;;;;;;;7.23;6.40;;;9.60;99.90;;;;;;5085322;28;20676;-63
2021/12/17 15:09:47;;;;;;;7.63;6.60;;;9.50;99.90;;;;;;5084108;28;20290;-65
2021/12/17 15:15:08;;;;;;;9.00;6.47;;;9.40;99.90;;;;;;5103159;28;20680;-63
2021/12/17 15:17:35;;;;;;;10.73;8.50;;;9.40;99.90;;;;;;5086221;28;20277;-64
2021/12/17 15:20:18;;;;;;;11.43;7.13;;;9.30;1.00;;;;;;5081312;28;20217;-64
2021/12/17 15:22:46;;;;;;;11.27;8.43;;;9.10;1.00;;;;;;5082844;28;20190;-66
2021/12/17 15:25:14;;;;;;;10.03;8.00;;;9.00;29.80;;;;;;5082912;28;20283;-64
2021/12/17 15:27:41;;;;;;;10.60;8.00;;;9.00;99.90;;;;;;5101360;28;20194;-62
2021/12/17 15:30:20;;;;;;;7.03;5.37;;;8.90;99.90;;;;;;5085345;28;20240;-66
2021/12/17 15:32:47;;;;;;;8.50;5.60;;;8.90;99.90;;;;;;5084629;28;20239;-64
2021/12/17 15:35:22;;;;;;;7.97;5.97;;;8.80;99.90;;;;;;5082963;28;20282;-64
2021/12/17 15:37:51;;;;;;;9.73;5.60;;;8.80;99.90;;;;;;5082994;28;20190;-64
2021/12/17 15:40:19;;;;;;;7.00;5.40;;;8.80;99.90;;;;;;5067201;28;20190;-65
2021/12/17 15:42:47;;;;;;;8.67;6.23;;;8.70;99.90;;;;;;5081280;28;20885;-65
2021/12/17 15:45:15;;;;;;;11.97;8.33;;;8.70;99.90;;;;;;5081849;28;20560;-65
2021/12/17 15:47:42;;;;;;;9.27;7.30;;;8.80;99.90;;;;;;5064772;28;20243;-65
2021/12/17 15:50:14;;;;;;;9.77;7.90;;;8.80;99.90;;;;;;5064536;28;20556;-65
2021/12/17 15:52:50;;;;;;;11.03;7.80;;;8.70;99.90;;;;;;5096227;28;21234;-65
2021/12/17 15:55:21;;;;;;;11.13;7.63;;;8.80;99.90;;;;;;5100249;28;20186;-64
2021/12/17 15:57:49;;;;;;;7.90;7.10;;;8.70;99.90;;;;;;5083520;28;20214;-65
2021/12/17 16:00:17;;;;;;;7.47;6.60;;;8.70;99.90;;;;;;5082337;28;20209;-64
2021/12/17 16:02:44;;;;;;;9.47;6.37;;;8.70;99.90;;;;;;5082937;28;20263;-65
2021/12/17 16:05:14;;;;;;;8.03;6.57;;;8.80;99.90;;;;;;5080202;28;20284;-65
2021/12/17 16:07:45;;;;;;;9.87;7.30;;;8.90;99.90;;;;;;5100008;28;20206;-65
2021/12/17 16:20:59;;;;;;;9.77;8.37;;;8.70;99.90;;;;;;5080844;28;20239;-65
2021/12/17 16:21:04;;;;;;;11.60;8.97;;;8.60;99.90;;;;;;5082831;28;20221;-65
2021/12/17 16:23:34;;;;;;;10.40;7.40;;;8.60;99.90;;;;;;5079903;28;20231;-65
2021/12/17 16:26:02;;;;;;;8.77;7.50;;;8.50;99.90;;;;;;5078061;28;20237;-64
2021/12/17 16:28:31;;;;;;;11.23;8.43;;;8.50;99.90;;;;;;5089880;28;20736;-64
2021/12/17 16:31:11;;;;;;;10.63;7.60;;;8.50;99.90;;;;;;5096160;28;20321;-64